N658KP KPFC-KCLS
Flight info
| Callsign | N658KP |
|---|---|
| Flight time | 0h 33m |
| Altitude | 7000 |
| Route | GRMPP KELNG T263 WINLO V165 HOKBO |
| Aircraft | C310/L-SDFGR/S |
Departure
| Time | 2026-05-07 23:32 |
|---|---|
| Airport | Pacific City State Airport (KPFC) |
Arrival
| Time | 2026-05-08 00:05 |
|---|---|
| Airport | Chehalis Centralia Airport (KCLS) |
| Time | Latitude | Longitude | Altitude | Speed | Heading |
|---|---|---|---|---|---|
| 2026-05-07 23:22 | 45.20003 | -123.96268 | 13 ft | 0 kts | 62° |
| 2026-05-07 23:26 | 45.20003 | -123.96267 | 13 ft | 0 kts | 62° |
| 2026-05-07 23:26 | 45.20023 | -123.96265 | 13 ft | 5 kts | 343° |
| 2026-05-07 23:27 | 45.20047 | -123.96259 | 13 ft | 0 kts | 72° |
| 2026-05-07 23:30 | 45.20049 | -123.96252 | 13 ft | 2 kts | 76° |
| 2026-05-07 23:30 | 45.20024 | -123.96220 | 13 ft | 8 kts | 167° |
| 2026-05-07 23:30 | 45.19949 | -123.96195 | 13 ft | 13 kts | 165° |
| 2026-05-07 23:30 | 45.19848 | -123.96156 | 13 ft | 16 kts | 166° |
| 2026-05-07 23:31 | 45.19730 | -123.96115 | 12 ft | 17 kts | 164° |
| 2026-05-07 23:31 | 45.19695 | -123.96089 | 12 ft | 2 kts | 188° |
| 2026-05-07 23:31 | 45.19699 | -123.96105 | 11 ft | 2 kts | 346° |
| 2026-05-07 23:31 | 45.19926 | -123.96185 | 14 ft | 75 kts | 344° |
| 2026-05-07 23:32 | 45.20566 | -123.96433 | 264 ft | 105 kts | 343° |
| 2026-05-07 23:32 | 45.21299 | -123.96715 | 744 ft | 114 kts | 343° |
| 2026-05-07 23:32 | 45.22060 | -123.96981 | 1286 ft | 114 kts | 346° |
| 2026-05-07 23:32 | 45.22847 | -123.97271 | 1702 ft | 119 kts | 340° |
| 2026-05-07 23:33 | 45.23669 | -123.97249 | 2111 ft | 127 kts | 21° |
| 2026-05-07 23:33 | 45.24351 | -123.96418 | 2544 ft | 132 kts | 44° |
| 2026-05-07 23:33 | 45.24970 | -123.95424 | 2990 ft | 134 kts | 46° |
| 2026-05-07 23:33 | 45.25584 | -123.94421 | 3439 ft | 134 kts | 46° |
| 2026-05-07 23:34 | 45.26230 | -123.93480 | 3881 ft | 134 kts | 38° |
| 2026-05-07 23:34 | 45.26975 | -123.92701 | 4323 ft | 134 kts | 30° |
| 2026-05-07 23:34 | 45.27793 | -123.92026 | 4773 ft | 135 kts | 26° |
| 2026-05-07 23:34 | 45.28629 | -123.91428 | 5213 ft | 136 kts | 24° |
| 2026-05-07 23:35 | 45.29486 | -123.90863 | 5655 ft | 137 kts | 22° |
| 2026-05-07 23:35 | 45.30361 | -123.90318 | 6100 ft | 138 kts | 20° |
| 2026-05-07 23:35 | 45.31251 | -123.89778 | 6551 ft | 138 kts | 19° |
| 2026-05-07 23:35 | 45.32158 | -123.89239 | 6926 ft | 145 kts | 19° |
| 2026-05-07 23:36 | 45.33167 | -123.88651 | 7002 ft | 167 kts | 19° |
| 2026-05-07 23:36 | 45.34310 | -123.87985 | 7007 ft | 181 kts | 19° |
| 2026-05-07 23:36 | 45.35513 | -123.87279 | 7005 ft | 188 kts | 19° |
| 2026-05-07 23:36 | 45.36765 | -123.86546 | 7003 ft | 193 kts | 19° |
| 2026-05-07 23:37 | 45.38032 | -123.85806 | 7002 ft | 196 kts | 19° |
| 2026-05-07 23:37 | 45.39324 | -123.85051 | 7001 ft | 197 kts | 19° |
| 2026-05-07 23:37 | 45.40616 | -123.84295 | 7000 ft | 198 kts | 19° |
| 2026-05-07 23:37 | 45.41928 | -123.83528 | 7000 ft | 199 kts | 19° |
| 2026-05-07 23:38 | 45.43222 | -123.82774 | 7000 ft | 199 kts | 19° |
| 2026-05-07 23:38 | 45.44531 | -123.82008 | 7000 ft | 199 kts | 19° |
| 2026-05-07 23:38 | 45.45826 | -123.81252 | 7000 ft | 199 kts | 19° |
| 2026-05-07 23:38 | 45.47108 | -123.80505 | 6999 ft | 199 kts | 19° |
| 2026-05-07 23:39 | 45.48400 | -123.79747 | 6999 ft | 199 kts | 19° |
| 2026-05-07 23:39 | 45.49683 | -123.78996 | 6999 ft | 199 kts | 19° |
| 2026-05-07 23:39 | 45.50994 | -123.78227 | 6999 ft | 199 kts | 19° |
| 2026-05-07 23:39 | 45.52271 | -123.77477 | 6999 ft | 199 kts | 19° |
| 2026-05-07 23:40 | 45.53576 | -123.76711 | 6999 ft | 199 kts | 19° |
| 2026-05-07 23:40 | 45.54852 | -123.75959 | 7000 ft | 199 kts | 19° |
| 2026-05-07 23:40 | 45.56143 | -123.75199 | 6999 ft | 199 kts | 19° |
| 2026-05-07 23:40 | 45.57436 | -123.74447 | 6999 ft | 199 kts | 19° |
| 2026-05-07 23:41 | 45.58723 | -123.73687 | 6999 ft | 199 kts | 20° |
| 2026-05-07 23:41 | 45.60007 | -123.72929 | 7000 ft | 200 kts | 20° |
| 2026-05-07 23:41 | 45.61262 | -123.72114 | 6989 ft | 201 kts | 30° |
| 2026-05-07 23:41 | 45.62428 | -123.71024 | 6999 ft | 201 kts | 32° |
| 2026-05-07 23:42 | 45.63563 | -123.69820 | 6999 ft | 201 kts | 34° |
| 2026-05-07 23:42 | 45.64679 | -123.68607 | 7000 ft | 201 kts | 34° |
| 2026-05-07 23:42 | 45.65796 | -123.67396 | 7000 ft | 201 kts | 34° |
| 2026-05-07 23:42 | 45.66914 | -123.66179 | 6999 ft | 201 kts | 35° |
| 2026-05-07 23:43 | 45.68022 | -123.64957 | 6999 ft | 202 kts | 35° |
| 2026-05-07 23:43 | 45.69128 | -123.63721 | 7000 ft | 202 kts | 36° |
| 2026-05-07 23:43 | 45.70243 | -123.62472 | 6999 ft | 202 kts | 36° |
| 2026-05-07 23:43 | 45.71348 | -123.61234 | 6999 ft | 202 kts | 36° |
| 2026-05-07 23:44 | 45.72445 | -123.59997 | 6999 ft | 202 kts | 36° |
| 2026-05-07 23:44 | 45.73562 | -123.58737 | 6999 ft | 202 kts | 36° |
| 2026-05-07 23:44 | 45.74665 | -123.57493 | 6999 ft | 202 kts | 36° |
| 2026-05-07 23:44 | 45.75778 | -123.56237 | 7000 ft | 201 kts | 36° |
| 2026-05-07 23:45 | 45.76893 | -123.54974 | 6999 ft | 201 kts | 36° |
| 2026-05-07 23:45 | 45.77987 | -123.53735 | 6999 ft | 201 kts | 36° |
| 2026-05-07 23:45 | 45.79094 | -123.52477 | 6999 ft | 201 kts | 36° |
| 2026-05-07 23:45 | 45.80197 | -123.51227 | 6999 ft | 201 kts | 36° |
| 2026-05-07 23:46 | 45.81284 | -123.49992 | 6999 ft | 201 kts | 36° |
| 2026-05-07 23:46 | 45.82390 | -123.48728 | 6999 ft | 201 kts | 36° |
| 2026-05-07 23:46 | 45.83490 | -123.47469 | 7000 ft | 201 kts | 37° |
| 2026-05-07 23:46 | 45.84584 | -123.46217 | 7000 ft | 201 kts | 36° |
| 2026-05-07 23:47 | 45.85679 | -123.44965 | 7000 ft | 201 kts | 36° |
| 2026-05-07 23:47 | 45.86774 | -123.43716 | 6965 ft | 203 kts | 36° |
| 2026-05-07 23:47 | 45.87884 | -123.42446 | 6948 ft | 203 kts | 36° |
| 2026-05-07 23:47 | 45.89006 | -123.41163 | 6945 ft | 202 kts | 36° |
| 2026-05-07 23:48 | 45.90097 | -123.39916 | 6945 ft | 202 kts | 36° |
| 2026-05-07 23:48 | 45.91210 | -123.38643 | 6945 ft | 201 kts | 36° |
| 2026-05-07 23:48 | 45.92314 | -123.37380 | 6945 ft | 201 kts | 36° |
| 2026-05-07 23:48 | 45.93411 | -123.36118 | 6945 ft | 201 kts | 37° |
| 2026-05-07 23:49 | 45.94519 | -123.34845 | 6945 ft | 201 kts | 37° |
| 2026-05-07 23:49 | 45.95631 | -123.33567 | 6955 ft | 200 kts | 37° |
| 2026-05-07 23:49 | 45.96742 | -123.32290 | 6961 ft | 200 kts | 37° |
| 2026-05-07 23:49 | 45.97850 | -123.31021 | 6962 ft | 201 kts | 37° |
| 2026-05-07 23:50 | 45.98957 | -123.29752 | 6962 ft | 201 kts | 37° |
| 2026-05-07 23:50 | 46.00077 | -123.28473 | 6962 ft | 201 kts | 37° |
| 2026-05-07 23:50 | 46.01189 | -123.27193 | 6962 ft | 201 kts | 37° |
| 2026-05-07 23:50 | 46.02300 | -123.25914 | 6962 ft | 201 kts | 37° |
| 2026-05-07 23:51 | 46.03401 | -123.24642 | 6996 ft | 200 kts | 37° |
| 2026-05-07 23:51 | 46.04499 | -123.23373 | 7008 ft | 200 kts | 37° |
| 2026-05-07 23:51 | 46.05600 | -123.22102 | 7009 ft | 201 kts | 37° |
| 2026-05-07 23:51 | 46.06707 | -123.20823 | 6986 ft | 201 kts | 33° |
| 2026-05-07 23:52 | 46.07857 | -123.19574 | 6824 ft | 204 kts | 35° |
| 2026-05-07 23:52 | 46.08973 | -123.18280 | 6675 ft | 205 kts | 37° |
| 2026-05-07 23:52 | 46.10101 | -123.16972 | 6522 ft | 205 kts | 38° |
| 2026-05-07 23:52 | 46.11211 | -123.15683 | 6372 ft | 205 kts | 37° |
| 2026-05-07 23:53 | 46.12357 | -123.14352 | 6217 ft | 205 kts | 37° |
| 2026-05-07 23:53 | 46.13496 | -123.13030 | 6062 ft | 204 kts | 37° |
| 2026-05-07 23:53 | 46.14640 | -123.11700 | 5904 ft | 203 kts | 37° |
| 2026-05-07 23:53 | 46.15768 | -123.10386 | 5749 ft | 201 kts | 37° |
| 2026-05-07 23:54 | 46.16906 | -123.09068 | 5591 ft | 200 kts | 36° |
| 2026-05-07 23:54 | 46.18238 | -123.08435 | 5441 ft | 196 kts | 4° |
| 2026-05-07 23:54 | 46.19626 | -123.08207 | 5281 ft | 196 kts | 3° |
| 2026-05-07 23:54 | 46.21021 | -123.08076 | 5128 ft | 196 kts | 0° |
| 2026-05-07 23:55 | 46.22425 | -123.08057 | 4973 ft | 195 kts | 358° |
| 2026-05-07 23:55 | 46.23828 | -123.08119 | 4818 ft | 195 kts | 356° |
| 2026-05-07 23:55 | 46.25200 | -123.08224 | 4665 ft | 195 kts | 355° |
| 2026-05-07 23:55 | 46.26584 | -123.08343 | 4511 ft | 195 kts | 355° |
| 2026-05-07 23:56 | 46.27977 | -123.08459 | 4357 ft | 195 kts | 355° |
| 2026-05-07 23:56 | 46.29354 | -123.08587 | 4204 ft | 195 kts | 355° |
| 2026-05-07 23:56 | 46.30721 | -123.08712 | 4052 ft | 194 kts | 355° |
| 2026-05-07 23:56 | 46.32106 | -123.08835 | 3897 ft | 194 kts | 355° |
| 2026-05-07 23:57 | 46.33469 | -123.08964 | 3744 ft | 193 kts | 355° |
| 2026-05-07 23:57 | 46.34822 | -123.09089 | 3592 ft | 193 kts | 355° |
| 2026-05-07 23:57 | 46.36179 | -123.09211 | 3440 ft | 192 kts | 355° |
| 2026-05-07 23:57 | 46.37545 | -123.09331 | 3285 ft | 191 kts | 356° |
| 2026-05-07 23:58 | 46.38911 | -123.09443 | 3130 ft | 190 kts | 355° |
| 2026-05-07 23:58 | 46.40232 | -123.09114 | 2947 ft | 192 kts | 30° |
| 2026-05-07 23:58 | 46.41254 | -123.07782 | 2804 ft | 191 kts | 41° |
| 2026-05-07 23:58 | 46.42216 | -123.06376 | 2650 ft | 191 kts | 44° |
| 2026-05-07 23:59 | 46.43182 | -123.04945 | 2493 ft | 190 kts | 44° |
| 2026-05-07 23:59 | 46.44135 | -123.03537 | 2338 ft | 190 kts | 44° |
| 2026-05-07 23:59 | 46.45080 | -123.02139 | 2184 ft | 189 kts | 44° |
| 2026-05-07 23:59 | 46.46014 | -123.00758 | 2031 ft | 188 kts | 44° |
| 2026-05-08 00:00 | 46.47110 | -122.99719 | 1886 ft | 183 kts | 24° |
| 2026-05-08 00:00 | 46.48244 | -122.98878 | 1717 ft | 176 kts | 25° |
| 2026-05-08 00:00 | 46.49371 | -122.98202 | 1561 ft | 171 kts | 13° |
| 2026-05-08 00:00 | 46.50544 | -122.97884 | 1411 ft | 167 kts | 6° |
| 2026-05-08 00:01 | 46.51722 | -122.97765 | 1251 ft | 165 kts | 2° |
| 2026-05-08 00:01 | 46.52861 | -122.97736 | 1205 ft | 158 kts | 0° |
| 2026-05-08 00:01 | 46.53961 | -122.97747 | 1195 ft | 152 kts | 359° |
| 2026-05-08 00:01 | 46.55018 | -122.97776 | 1200 ft | 147 kts | 358° |
| 2026-05-08 00:02 | 46.56053 | -122.97815 | 1203 ft | 145 kts | 358° |
| 2026-05-08 00:02 | 46.57082 | -122.97831 | 1208 ft | 142 kts | 2° |
| 2026-05-08 00:02 | 46.58060 | -122.97772 | 1205 ft | 130 kts | 360° |
| 2026-05-08 00:02 | 46.58959 | -122.97790 | 1169 ft | 123 kts | 358° |
| 2026-05-08 00:03 | 46.59840 | -122.97877 | 1096 ft | 121 kts | 357° |
| 2026-05-08 00:03 | 46.60690 | -122.97916 | 1079 ft | 118 kts | 358° |
| 2026-05-08 00:03 | 46.61525 | -122.98016 | 1053 ft | 116 kts | 357° |
| 2026-05-08 00:03 | 46.62324 | -122.98041 | 1052 ft | 108 kts | 1° |
| 2026-05-08 00:04 | 46.63088 | -122.98056 | 953 ft | 108 kts | 359° |
| 2026-05-08 00:04 | 46.63858 | -122.98092 | 825 ft | 110 kts | 360° |
| 2026-05-08 00:04 | 46.64642 | -122.98108 | 656 ft | 111 kts | 0° |
| 2026-05-08 00:04 | 46.65379 | -122.98151 | 542 ft | 100 kts | 359° |
| 2026-05-08 00:05 | 46.66066 | -122.98189 | 376 ft | 94 kts | 0° |
| 2026-05-08 00:05 | 46.66707 | -122.98222 | 251 ft | 89 kts | 0° |
| 2026-05-08 00:05 | 46.67296 | -122.98253 | 178 ft | 68 kts | 0° |
| 2026-05-08 00:05 | 46.67659 | -122.98274 | 175 ft | 19 kts | 347° |
| 2026-05-08 00:06 | 46.67705 | -122.98330 | 174 ft | 4 kts | 263° |
| 2026-05-08 00:06 | 46.67704 | -122.98387 | 174 ft | 5 kts | 265° |
| 2026-05-08 00:06 | 46.67704 | -122.98453 | 174 ft | 5 kts | 272° |
| 2026-05-08 00:06 | 46.67672 | -122.98484 | 174 ft | 7 kts | 178° |
| 2026-05-08 00:07 | 46.67611 | -122.98483 | 174 ft | 9 kts | 178° |
| 2026-05-08 00:07 | 46.67538 | -122.98479 | 174 ft | 10 kts | 176° |
| 2026-05-08 00:07 | 46.67459 | -122.98473 | 175 ft | 11 kts | 178° |
| 2026-05-08 00:07 | 46.67382 | -122.98477 | 176 ft | 9 kts | 203° |
| 2026-05-08 00:08 | 46.67321 | -122.98523 | 177 ft | 10 kts | 247° |
| 2026-05-08 00:08 | 46.67335 | -122.98541 | 177 ft | 2 kts | 90° |
| 2026-05-08 00:08 | 46.67328 | -122.98505 | 177 ft | 3 kts | 71° |
| 2026-05-08 00:08 | 46.67352 | -122.98497 | 177 ft | 3 kts | 351° |